Time;durP1;ratioP1;P1;durP2;ratioP2;P2;SDS_P1;SDS_P2;PMS_P1;PMS_P2;Temp;Humidity;BMP_temperature;BMP_pressure;BME280_temperature;BME280_humidity;BME280_pressure;Samples;Min_cycle;Max_cycle;Signal;HPM_P1;HPM_P2
2023/06/19 05:11:36;;;;;;;;;;;;;;;24.81;52.74;96757.34;4231603;27;10257;-72
2023/06/19 05:13:39;;;;;;;;;;;;;;;25.12;52.37;96759.75;4232716;27;5747;-73
2023/06/19 05:15:42;;;;;;;;;;;;;;;25.35;52.02;96771.69;4234755;27;5820;-73
2023/06/19 05:17:46;;;;;;;;;;;;;;;25.50;51.67;96769.63;4237363;27;6354;-73
2023/06/19 05:19:50;;;;;;;;;;;;;;;25.62;51.20;96765.69;4235758;27;5905;-74
2023/06/19 05:21:53;;;;;;;;;;;;;;;25.73;51.28;96762.59;4237528;27;6376;-74
2023/06/19 05:23:56;;;;;;;;;;;;;;;25.83;51.02;96764.38;4236301;27;5953;-74
2023/06/19 05:25:58;;;;;;;;;;;;;;;25.91;50.91;96769.13;4236508;27;5657;-73
2023/06/19 05:28:03;;;;;;;;;;;;;;;25.96;50.75;96763.63;4235753;27;5646;-73
2023/06/19 05:30:09;;;;;;;;;;;;;;;26.01;50.85;96770.88;4231580;27;5808;-74
2023/06/19 05:32:12;;;;;;;;;;;;;;;26.10;50.48;96769.13;4236532;27;6590;-73
2023/06/19 05:34:15;;;;;;;;;;;;;;;26.23;50.53;96762.16;4235733;27;5922;-74
2023/06/19 05:36:17;;;;;;;;;;;;;;;26.33;50.25;96765.53;4233957;27;5658;-73
2023/06/19 05:38:21;;;;;;;;;;;;;;;26.44;50.06;96760.78;4234170;27;5757;-74
2023/06/19 05:40:23;;;;;;;;;;;;;;;26.50;50.07;96769.63;4233457;27;5691;-74
2023/06/19 05:42:26;;;;;;;;;;;;;;;26.53;50.26;96769.84;4231561;27;5829;-74
2023/06/19 05:44:31;;;;;;;;;;;;;;;26.58;49.99;96775.19;4231931;27;5954;-73
2023/06/19 05:46:34;;;;;;;;;;;;;;;26.62;49.83;96768.09;4232611;27;5754;-72
2023/06/19 05:48:36;;;;;;;;;;;;;;;26.67;50.13;96778.03;4234308;27;5873;-72
2023/06/19 05:50:39;;;;;;;;;;;;;;;26.75;49.78;96782.78;4238530;27;5645;-72
2023/06/19 05:52:43;;;;;;;;;;;;;;;26.81;49.64;96783.50;4235666;27;5124;-72
2023/06/19 05:54:46;;;;;;;;;;;;;;;26.85;49.80;96782.63;4236915;27;5670;-72
2023/06/19 05:56:50;;;;;;;;;;;;;;;26.89;49.66;96783.63;4237402;27;5772;-72
2023/06/19 05:58:53;;;;;;;;;;;;;;;26.93;49.70;96786.53;4238150;27;5910;-72
2023/06/19 06:00:58;;;;;;;;;;;;;;;26.96;49.54;96777.81;4234553;27;5688;-72
2023/06/19 06:03:02;;;;;;;;;;;;;;;26.99;49.36;96788.88;4227584;27;5697;-72
2023/06/19 06:05:06;;;;;;;;;;;;;;;27.01;49.77;96785.84;4229239;27;5842;-72
2023/06/19 06:07:09;;;;;;;;;;;;;;;27.02;49.31;96776.63;4236855;27;5826;-72
2023/06/19 06:09:13;;;;;;;;;;;;;;;27.04;49.53;96785.28;4235520;27;5744;-71
2023/06/19 06:11:15;;;;;;;;;;;;;;;27.04;49.25;96779.84;4231256;27;5841;-72
2023/06/19 06:13:19;;;;;;;;;;;;;;;27.06;49.39;96782.25;4226381;28;5682;-71
2023/06/19 06:15:22;;;;;;;;;;;;;;;27.09;49.26;96782.50;4227476;28;5646;-72
2023/06/19 06:17:26;;;;;;;;;;;;;;;27.16;49.36;96787.50;4221591;28;5658;-72
2023/06/19 06:19:29;;;;;;;;;;;;;;;27.20;48.92;96783.91;4250861;27;5721;-72
2023/06/19 06:21:34;;;;;;;;;;;;;;;27.24;49.08;96784.91;4225055;28;5656;-72
2023/06/19 06:23:38;;;;;;;;;;;;;;;27.28;48.99;96788.63;4225305;27;5762;-72
2023/06/19 06:25:40;;;;;;;;;;;;;;;27.31;48.73;96791.88;4228219;28;5203;-71
2023/06/19 06:27:44;;;;;;;;;;;;;;;27.34;48.55;96788.53;4225106;28;5787;-72
2023/06/19 06:29:47;;;;;;;;;;;;;;;27.37;48.54;96790.66;4223020;28;5809;-72
2023/06/19 06:31:52;;;;;;;;;;;;;;;27.40;48.29;96792.75;4220587;28;5230;-72
2023/06/19 06:33:56;;;;;;;;;;;;;;;27.42;48.26;96796.78;4223994;28;5698;-74
2023/06/19 06:35:59;;;;;;;;;;;;;;;27.48;48.40;96795.56;4222765;28;5777;-74
2023/06/19 06:38:02;;;;;;;;;;;;;;;27.56;48.41;96802.22;4223009;28;5667;-73
2023/06/19 06:40:09;;;;;;;;;;;;;;;27.60;47.99;96789.63;4227754;28;5821;-74
2023/06/19 06:42:11;;;;;;;;;;;;;;;27.65;48.22;96792.31;4225846;28;6563;-74
2023/06/19 06:44:14;;;;;;;;;;;;;;;27.69;47.89;96790.56;4225911;28;5774;-74
2023/06/19 06:46:17;;;;;;;;;;;;;;;27.73;47.92;96794.28;4222425;28;5753;-74
2023/06/19 06:48:21;;;;;;;;;;;;;;;27.78;47.39;96798.81;4222063;28;5671;-73
2023/06/19 06:50:25;;;;;;;;;;;;;;;27.82;47.80;96797.91;4224974;28;5858;-74
2023/06/19 06:52:30;;;;;;;;;;;;;;;27.84;47.42;96792.97;4223400;28;5709;-74
2023/06/19 06:54:33;;;;;;;;;;;;;;;27.90;47.48;96795.59;4226357;28;5775;-73
2023/06/19 06:56:36;;;;;;;;;;;;;;;27.94;47.11;96799.28;4226031;28;5646;-74
2023/06/19 06:58:40;;;;;;;;;;;;;;;27.96;46.83;96783.50;4222871;28;5638;-74
2023/06/19 07:00:43;;;;;;;;;;;;;;;27.98;46.85;96792.97;4224830;28;5849;-74
2023/06/19 07:02:47;;;;;;;;;;;;;;;28.01;46.88;96797.78;4226667;28;5770;-74
2023/06/19 07:04:52;;;;;;;;;;;;;;;28.03;46.75;96787.41;4227633;28;6026;-75
2023/06/19 07:06:57;;;;;;;;;;;;;;;28.04;46.68;96788.22;4225258;28;5691;-74
2023/06/19 07:09:00;;;;;;;;;;;;;;;27.99;46.76;96793.78;4227834;28;5760;-74
2023/06/19 07:11:04;;;;;;;;;;;;;;;27.96;46.82;96786.22;4223149;28;5735;-74
2023/06/19 07:13:09;;;;;;;;;;;;;;;27.93;46.67;96781.38;4221779;28;5445;-75
2023/06/19 07:15:12;;;;;;;;;;;;;;;27.93;46.70;96794.97;4218935;28;5723;-74
2023/06/19 07:17:15;;;;;;;;;;;;;;;27.91;46.60;96792.56;4222330;28;5668;-75
2023/06/19 07:19:22;;;;;;;;;;;;;;;27.90;46.60;96804.53;4225680;28;5705;-74
2023/06/19 07:21:25;;;;;;;;;;;;;;;27.88;46.45;96801.34;4220790;28;5782;-73
2023/06/19 07:23:29;;;;;;;;;;;;;;;27.87;46.50;96804.34;4223265;28;5709;-73
2023/06/19 07:25:33;;;;;;;;;;;;;;;27.85;46.32;96797.28;4222130;28;5785;-73
2023/06/19 07:27:36;;;;;;;;;;;;;;;27.82;46.37;96800.63;4227684;28;5721;-73
2023/06/19 07:29:39;;;;;;;;;;;;;;;27.82;46.10;96806.06;4223565;28;5729;-73
2023/06/19 07:31:43;;;;;;;;;;;;;;;27.80;46.32;96802.84;4222080;28;5832;-73
2023/06/19 07:33:46;;;;;;;;;;;;;;;27.81;46.11;96801.72;4223057;28;5655;-73
2023/06/19 07:35:49;;;;;;;;;;;;;;;27.82;46.16;96791.66;4222452;28;5682;-74
2023/06/19 07:37:52;;;;;;;;;;;;;;;27.83;46.06;96801.41;4227067;28;5674;-73
2023/06/19 07:39:56;;;;;;;;;;;;;;;27.80;46.01;96791.16;4228458;28;5772;-74
2023/06/19 07:42:06;;;;;;;;;;;;;;;27.79;46.19;96795.81;4223543;28;5830;-75
2023/06/19 07:44:09;;;;;;;;;;;;;;;27.74;45.88;96786.94;4219532;28;5886;-74
2023/06/19 07:46:13;;;;;;;;;;;;;;;27.67;45.98;96794.72;4223218;28;5849;-75
2023/06/19 07:48:16;;;;;;;;;;;;;;;27.65;45.94;96795.00;4220329;28;5834;-74
2023/06/19 07:50:20;;;;;;;;;;;;;;;27.63;46.13;96791.75;4224019;28;5814;-77
2023/06/19 07:52:23;;;;;;;;;;;;;;;27.60;46.06;96789.63;4225262;27;5735;-77
2023/06/19 07:54:26;;;;;;;;;;;;;;;27.58;46.18;96789.16;4223246;28;5952;-77
2023/06/19 07:56:32;;;;;;;;;;;;;;;27.54;46.20;96794.38;4229313;28;5830;-82
2023/06/19 07:58:35;;;;;;;;;;;;;;;27.50;46.21;96787.94;4222789;28;5741;-84
2023/06/19 08:00:40;;;;;;;;;;;;;;;27.46;46.45;96786.13;4227173;28;5649;-83
2023/06/19 08:02:43;;;;;;;;;;;;;;;27.45;46.42;96784.53;4225063;28;5892;-82
2023/06/19 08:04:46;;;;;;;;;;;;;;;27.49;46.25;96790.94;4223210;28;5762;-82
2023/06/19 08:06:50;;;;;;;;;;;;;;;27.53;46.20;96791.97;4221259;28;6579;-83
2023/06/19 08:08:52;;;;;;;;;;;;;;;27.55;46.25;96787.03;4221092;28;5810;-82
2023/06/19 08:10:55;;;;;;;;;;;;;;;27.53;46.15;96776.47;4221130;28;5116;-82
2023/06/19 08:13:02;;;;;;;;;;;;;;;27.58;45.77;96781.00;4225929;27;5666;-83
2023/06/19 08:15:07;;;;;;;;;;;;;;;27.56;45.62;96775.88;4227104;28;5682;-83
2023/06/19 08:17:11;;;;;;;;;;;;;;;27.58;45.57;96778.28;4219401;28;5646;-83
2023/06/19 08:19:14;;;;;;;;;;;;;;;27.61;45.55;96780.38;4225216;28;5997;-83
2023/06/19 08:21:18;;;;;;;;;;;;;;;27.65;45.40;96775.19;4222943;28;5663;-82
2023/06/19 08:23:21;;;;;;;;;;;;;;;27.71;45.35;96771.25;4220043;28;5828;-82
2023/06/19 08:25:24;;;;;;;;;;;;;;;27.73;45.17;96774.47;4221470;28;5662;-82
2023/06/19 08:27:27;;;;;;;;;;;;;;;27.72;45.24;96773.66;4225386;28;5660;-82
2023/06/19 08:29:34;;;;;;;;;;;;;;;27.69;45.08;96779.72;4229258;28;5729;-84
2023/06/19 08:31:36;;;;;;;;;;;;;;;27.70;45.19;96775.88;4221110;28;5617;-83
2023/06/19 08:33:40;;;;;;;;;;;;;;;27.72;45.09;96787.25;4224840;28;5850;-82
2023/06/19 08:35:44;;;;;;;;;;;;;;;27.73;44.98;96783.41;4220804;28;5679;-82
2023/06/19 08:37:47;;;;;;;;;;;;;;;27.74;44.90;96797.81;4226846;28;5725;-82
2023/06/19 08:39:50;;;;;;;;;;;;;;;27.71;44.69;96784.84;4223297;28;5889;-82
2023/06/19 08:41:53;;;;;;;;;;;;;;;27.72;44.77;96789.16;4224795;28;5671;-82
2023/06/19 08:43:57;;;;;;;;;;;;;;;27.71;44.82;96787.56;4224725;28;5667;-82
2023/06/19 08:46:10;;;;;;;;;;;;;;;27.70;44.59;96784.03;4221623;28;5770;-82
2023/06/19 08:48:15;;;;;;;;;;;;;;;27.73;44.48;96783.41;4224748;28;5673;-82
2023/06/19 08:50:20;;;;;;;;;;;;;;;27.76;44.48;96784.75;4224333;27;5710;-82
2023/06/19 08:52:24;;;;;;;;;;;;;;;27.75;44.25;96783.94;4227118;28;5754;-82
2023/06/19 08:54:27;;;;;;;;;;;;;;;27.76;44.46;96780.13;4227974;28;6171;-83
2023/06/19 08:56:33;;;;;;;;;;;;;;;27.76;44.31;96782.84;4224682;28;5621;-82
2023/06/19 08:58:37;;;;;;;;;;;;;;;27.78;44.50;96782.53;4224236;28;5670;-83
2023/06/19 09:00:40;;;;;;;;;;;;;;;27.76;44.47;96779.31;4222370;28;5650;-82
2023/06/19 09:02:47;;;;;;;;;;;;;;;27.78;44.34;96790.69;4227871;28;5658;-82
2023/06/19 09:05:12;;;;;;;;;;;;;;;27.81;44.31;96776.47;4224019;28;5674;-82
2023/06/19 09:07:15;;;;;;;;;;;;;;;27.83;44.64;96785.94;4224157;28;5634;-82
2023/06/19 09:09:21;;;;;;;;;;;;;;;27.87;44.70;96785.34;4222384;28;5736;-82
2023/06/19 09:11:24;;;;;;;;;;;;;;;27.90;44.64;96790.97;4224626;28;5857;-81
2023/06/19 09:13:28;;;;;;;;;;;;;;;27.87;44.82;96783.44;4224636;28;5683;-80
2023/06/19 09:15:32;;;;;;;;;;;;;;;27.85;44.83;96782.91;4218550;28;5766;-81
2023/06/19 09:17:35;;;;;;;;;;;;;;;27.84;44.95;96773.94;4226048;28;5850;-82
2023/06/19 09:19:48;;;;;;;;;;;;;;;27.87;44.84;96778.00;4220875;28;6421;-81
2023/06/19 09:21:52;;;;;;;;;;;;;;;27.89;45.08;96775.78;4230418;28;5740;-82
2023/06/19 09:24:21;;;;;;;;;;;;;;;27.93;44.88;96773.25;4226697;28;5676;-82
2023/06/19 09:26:29;;;;;;;;;;;;;;;27.84;44.92;96754.13;4227331;28;5692;-83
2023/06/19 09:28:33;;;;;;;;;;;;;;;27.91;44.79;96759.16;4229354;28;5659;-81
2023/06/19 09:30:39;;;;;;;;;;;;;;;27.98;44.89;96760.38;4221557;27;5885;-81
2023/06/19 09:32:43;;;;;;;;;;;;;;;27.96;44.82;96759.03;4222631;28;5676;-81
2023/06/19 09:34:50;;;;;;;;;;;;;;;27.94;45.00;96755.81;4223245;28;5738;-83
2023/06/19 09:36:54;;;;;;;;;;;;;;;27.90;44.93;96747.50;4222026;28;5683;-82
2023/06/19 09:39:00;;;;;;;;;;;;;;;27.95;45.05;96754.72;4225030;28;5688;-81
2023/06/19 09:41:06;;;;;;;;;;;;;;;27.97;45.08;96752.50;4226503;28;5684;-81
2023/06/19 09:43:10;;;;;;;;;;;;;;;27.91;45.40;96742.88;4218380;28;5675;-81
2023/06/19 09:45:18;;;;;;;;;;;;;;;27.91;45.28;96738.22;4223849;28;5755;-81
2023/06/19 09:47:25;;;;;;;;;;;;;;;27.94;45.41;96751.19;4222534;28;5683;-82
2023/06/19 09:49:33;;;;;;;;;;;;;;;27.95;45.49;96750.09;4229715;28;5786;-82
2023/06/19 09:51:44;;;;;;;;;;;;;;;27.93;45.42;96751.50;4215306;28;5656;-82
2023/06/19 09:53:48;;;;;;;;;;;;;;;27.93;45.46;96759.66;4222316;28;5764;-83
2023/06/19 09:55:52;;;;;;;;;;;;;;;27.89;45.48;96756.75;4222260;28;5851;-80
2023/06/19 09:58:32;;;;;;;;;;;;;;;27.85;45.24;96756.53;4236294;28;5762;-81
2023/06/19 10:00:37;;;;;;;;;;;;;;;27.81;45.62;96746.59;4214261;28;6388;-81
2023/06/19 10:02:41;;;;;;;;;;;;;;;27.81;45.18;96750.13;4222608;28;5757;-83
2023/06/19 10:04:46;;;;;;;;;;;;;;;27.79;45.37;96746.09;4222842;28;5672;-82
2023/06/19 10:06:51;;;;;;;;;;;;;;;27.80;45.06;96753.16;4222162;28;5872;-82
2023/06/19 10:08:54;;;;;;;;;;;;;;;27.77;45.04;96748.31;4221979;28;6372;-82
2023/06/19 10:10:58;;;;;;;;;;;;;;;27.78;44.96;96748.03;4220902;28;5754;-84
2023/06/19 10:13:13;;;;;;;;;;;;;;;27.76;44.89;96742.09;4220349;28;5667;-83
2023/06/19 10:15:18;;;;;;;;;;;;;;;27.77;44.58;96737.47;4221877;28;5675;-82
2023/06/19 10:17:21;;;;;;;;;;;;;;;27.75;44.48;96743.22;4220100;28;5754;-83
2023/06/19 10:19:25;;;;;;;;;;;;;;;27.73;44.29;96739.97;4222035;27;5754;-82
2023/06/19 10:21:29;;;;;;;;;;;;;;;27.73;43.96;96742.69;4222446;28;5667;-83
2023/06/19 10:23:37;;;;;;;;;;;;;;;27.72;43.63;96743.00;4205373;28;5696;-82
2023/06/19 10:25:41;;;;;;;;;;;;;;;27.68;43.74;96742.81;4221700;28;5863;-79
2023/06/19 10:27:45;;;;;;;;;;;;;;;27.73;43.82;96739.16;4220458;28;6220;-80
2023/06/19 10:29:57;;;;;;;;;;;;;;;27.72;43.55;96740.28;4222032;28;5679;-79
2023/06/19 10:32:23;;;;;;;;;;;;;;;27.70;43.43;96737.88;4222249;28;5843;-80
2023/06/19 10:34:34;;;;;;;;;;;;;;;27.66;43.20;96736.06;4223574;28;6283;-81
2023/06/19 10:36:38;;;;;;;;;;;;;;;27.71;43.04;96753.06;4222015;28;5780;-80
2023/06/19 10:38:47;;;;;;;;;;;;;;;27.72;42.74;96751.94;4221394;28;5747;-80
2023/06/19 10:40:51;;;;;;;;;;;;;;;27.71;42.88;96750.34;4222679;28;5690;-78
2023/06/19 10:42:55;;;;;;;;;;;;;;;27.72;42.63;96745.72;4221898;28;5683;-77
2023/06/19 10:45:05;;;;;;;;;;;;;;;27.69;42.60;96740.88;4222725;28;6513;-79
2023/06/19 10:47:11;;;;;;;;;;;;;;;27.74;42.38;96748.91;4229092;28;5803;-77
2023/06/19 10:49:14;;;;;;;;;;;;;;;27.69;42.46;96738.19;4223092;28;5675;-77
2023/06/19 10:51:19;;;;;;;;;;;;;;;27.71;42.18;96747.63;4223226;28;5691;-81
2023/06/19 10:53:28;;;;;;;;;;;;;;;27.74;42.15;96738.84;4222521;28;5644;-78
2023/06/19 10:55:35;;;;;;;;;;;;;;;27.78;42.15;96739.88;4217661;28;5678;-81
2023/06/19 10:57:41;;;;;;;;;;;;;;;27.83;42.00;96734.31;4228550;28;5650;-79
2023/06/19 10:59:44;;;;;;;;;;;;;;;27.84;42.00;96733.19;4222785;28;5686;-80
2023/06/19 11:01:52;;;;;;;;;;;;;;;27.89;41.73;96729.59;4222889;28;5667;-81
2023/06/19 11:03:55;;;;;;;;;;;;;;;27.89;41.85;96731.50;4222459;28;6070;-81
2023/06/19 11:06:02;;;;;;;;;;;;;;;27.88;41.65;96725.28;4223686;28;5671;-81
2023/06/19 11:08:06;;;;;;;;;;;;;;;27.96;41.71;96731.88;4222509;28;5731;-81
2023/06/19 11:10:22;;;;;;;;;;;;;;;28.02;41.71;96741.53;4222035;28;5798;-82
2023/06/19 11:12:31;;;;;;;;;;;;;;;28.04;41.69;96740.09;4223321;28;5733;-82
2023/06/19 11:14:42;;;;;;;;;;;;;;;28.04;41.52;96731.16;4221638;28;5663;-82
2023/06/19 11:16:51;;;;;;;;;;;;;;;28.08;41.56;96732.13;4221897;28;5767;-81
2023/06/19 11:18:57;;;;;;;;;;;;;;;28.07;41.64;96719.66;4222616;28;5626;-80
2023/06/19 11:21:04;;;;;;;;;;;;;;;28.09;41.59;96729.13;4221310;28;5765;-81
2023/06/19 11:23:07;;;;;;;;;;;;;;;28.11;41.75;96726.91;4222223;28;5676;-81
2023/06/19 11:25:14;;;;;;;;;;;;;;;28.09;41.62;96722.91;4223293;28;5081;-80
2023/06/19 11:27:27;;;;;;;;;;;;;;;28.14;41.70;96712.69;4223476;28;5770;-81
2023/06/19 11:29:36;;;;;;;;;;;;;;;28.18;41.62;96714.78;4222653;28;5744;-82
2023/06/19 11:31:40;;;;;;;;;;;;;;;28.19;41.43;96710.97;4223311;28;5905;-80
2023/06/19 11:33:56;;;;;;;;;;;;;;;28.16;41.32;96706.94;4222770;28;5740;-82
2023/06/19 11:36:03;;;;;;;;;;;;;;;28.19;41.29;96714.47;4221521;28;5770;-81
2023/06/19 11:38:06;;;;;;;;;;;;;;;28.22;41.21;96716.59;4221443;28;5664;-80
2023/06/19 11:40:14;;;;;;;;;;;;;;;28.23;41.44;96715.50;4222975;28;5679;-80
2023/06/19 11:42:18;;;;;;;;;;;;;;;28.23;41.32;96711.97;4223428;28;5791;-80
2023/06/19 11:44:28;;;;;;;;;;;;;;;28.22;41.42;96711.16;4223151;28;5779;-82
2023/06/19 11:46:37;;;;;;;;;;;;;;;28.18;41.52;96693.03;4223900;28;5660;-80
2023/06/19 11:48:44;;;;;;;;;;;;;;;28.08;41.47;96677.78;4222840;28;5753;-80
2023/06/19 11:51:05;;;;;;;;;;;;;;;28.17;41.44;96692.25;4225319;28;6768;-81
2023/06/19 11:53:13;;;;;;;;;;;;;;;28.16;41.34;96682.50;4225027;28;5799;-82
2023/06/19 11:55:23;;;;;;;;;;;;;;;28.19;41.33;96679.16;4220848;28;6542;-79
2023/06/19 11:57:29;;;;;;;;;;;;;;;28.18;41.35;96665.88;4219745;28;5688;-81
2023/06/19 11:59:44;;;;;;;;;;;;;;;28.19;41.15;96671.00;4217795;28;5949;-80
2023/06/19 12:01:56;;;;;;;;;;;;;;;28.17;41.29;96670.50;4223637;28;5674;-81
2023/06/19 12:04:09;;;;;;;;;;;;;;;28.12;41.05;96663.28;4220055;28;5895;-81
2023/06/19 12:06:13;;;;;;;;;;;;;;;28.16;41.06;96671.63;4221455;28;5667;-81
2023/06/19 12:08:17;;;;;;;;;;;;;;;28.14;41.08;96671.94;4221864;28;5687;-79
2023/06/19 12:10:20;;;;;;;;;;;;;;;28.17;40.93;96675.94;4220990;28;5738;-80
2023/06/19 12:12:25;;;;;;;;;;;;;;;28.18;40.99;96676.75;4221994;28;5739;-82
2023/06/19 12:14:29;;;;;;;;;;;;;;;28.17;41.09;96669.69;4222512;28;5743;-81
2023/06/19 12:16:35;;;;;;;;;;;;;;;28.14;40.69;96671.13;4217358;28;5934;-81
2023/06/19 12:18:40;;;;;;;;;;;;;;;28.07;40.74;96659.88;4221686;28;5675;-80
2023/06/19 12:20:47;;;;;;;;;;;;;;;28.11;40.78;96666.31;4220989;28;5668;-80
2023/06/19 12:22:53;;;;;;;;;;;;;;;28.08;40.62;96656.84;4224093;28;5679;-79
2023/06/19 12:24:57;;;;;;;;;;;;;;;28.06;40.52;96656.34;4221552;28;5778;-79
2023/06/19 12:27:00;;;;;;;;;;;;;;;28.00;40.61;96648.66;4220135;28;5843;-80
2023/06/19 12:29:03;;;;;;;;;;;;;;;28.05;40.46;96652.03;4212978;28;5853;-80
2023/06/19 12:31:06;;;;;;;;;;;;;;;28.04;40.65;96647.72;4214341;28;5757;-79
2023/06/19 12:33:10;;;;;;;;;;;;;;;28.04;40.44;96655.88;4214384;28;6381;-79
2023/06/19 12:35:17;;;;;;;;;;;;;;;28.03;40.44;96642.59;4216228;28;6374;-80
2023/06/19 12:37:21;;;;;;;;;;;;;;;28.02;40.52;96630.94;4215394;28;5873;-81
2023/06/19 12:39:24;;;;;;;;;;;;;;;28.03;40.52;96637.16;4216975;28;5794;-80
2023/06/19 12:41:28;;;;;;;;;;;;;;;28.02;40.38;96630.94;4216741;28;5699;-80
2023/06/19 12:43:31;;;;;;;;;;;;;;;28.04;40.36;96627.91;4213754;28;5829;-80
2023/06/19 12:45:37;;;;;;;;;;;;;;;28.04;40.47;96619.75;4213767;28;5691;-80
2023/06/19 12:47:40;;;;;;;;;;;;;;;28.03;40.41;96624.38;4215659;28;5742;-81
2023/06/19 12:49:43;;;;;;;;;;;;;;;28.03;40.39;96615.44;4215089;28;6508;-80
2023/06/19 12:51:51;;;;;;;;;;;;;;;28.04;40.47;96625.19;4211085;28;5948;-80
2023/06/19 12:53:54;;;;;;;;;;;;;;;28.03;40.38;96620.84;4216785;28;5674;-81
2023/06/19 12:55:58;;;;;;;;;;;;;;;28.04;40.45;96614.31;4212310;28;5672;-79
2023/06/19 12:58:06;;;;;;;;;;;;;;;28.02;40.56;96624.69;4211505;28;6522;-80
2023/06/19 13:00:12;;;;;;;;;;;;;;;28.00;40.49;96633.16;4213186;28;5823;-80
2023/06/19 13:02:15;;;;;;;;;;;;;;;28.00;40.61;96626.91;4213068;28;5787;-81
2023/06/19 13:04:19;;;;;;;;;;;;;;;28.02;40.52;96624.69;4215634;28;5718;-80
2023/06/19 13:06:22;;;;;;;;;;;;;;;28.03;40.46;96626.28;4212797;28;5741;-80
2023/06/19 13:08:26;;;;;;;;;;;;;;;28.02;40.59;96621.97;4214372;28;5919;-80
2023/06/19 13:10:29;;;;;;;;;;;;;;;28.03;40.65;96621.66;4217150;28;5787;-81
2023/06/19 13:12:32;;;;;;;;;;;;;;;28.04;40.72;96623.25;4206659;28;5663;-80
2023/06/19 13:14:37;;;;;;;;;;;;;;;28.04;40.42;96625.19;4212384;28;5671;-80
2023/06/19 13:16:43;;;;;;;;;;;;;;;28.05;40.27;96621.34;4214950;28;5703;-80
2023/06/19 13:18:49;;;;;;;;;;;;;;;28.05;40.64;96624.06;4213947;28;5675;-79
2023/06/19 13:20:52;;;;;;;;;;;;;;;28.05;40.52;96619.44;4215707;28;5687;-80
2023/06/19 13:22:55;;;;;;;;;;;;;;;28.06;40.61;96609.38;4217951;28;6373;-79
2023/06/19 13:24:59;;;;;;;;;;;;;;;28.08;40.65;96618.00;4219287;28;5616;-79
2023/06/19 13:27:03;;;;;;;;;;;;;;;28.07;40.72;96617.19;4214721;28;5662;-79
2023/06/19 13:29:05;;;;;;;;;;;;;;;28.09;40.61;96606.84;4219585;28;5783;-79
2023/06/19 13:31:08;;;;;;;;;;;;;;;28.10;40.68;96604.94;4217991;28;5715;-80
2023/06/19 13:33:12;;;;;;;;;;;;;;;28.10;40.58;96599.50;4214394;28;5784;-79
2023/06/19 13:35:15;;;;;;;;;;;;;;;28.11;40.56;96596.47;4221082;28;5663;-79
2023/06/19 13:37:18;;;;;;;;;;;;;;;28.12;40.65;96594.56;4216605;28;5754;-79
2023/06/19 13:39:21;;;;;;;;;;;;;;;28.12;40.64;96594.56;4220513;28;5692;-79
2023/06/19 13:41:26;;;;;;;;;;;;;;;28.12;40.65;96586.41;4215714;28;5704;-80
2023/06/19 13:43:30;;;;;;;;;;;;;;;28.13;40.56;96602.38;4216499;28;5738;-79
2023/06/19 13:45:33;;;;;;;;;;;;;;;28.13;40.60;96594.22;4218481;28;5774;-80
2023/06/19 13:47:38;;;;;;;;;;;;;;;28.14;40.47;96584.97;4225164;28;5769;-79
2023/06/19 13:49:43;;;;;;;;;;;;;;;28.18;40.58;96589.78;4214344;28;5120;-80
2023/06/19 13:51:46;;;;;;;;;;;;;;;28.20;40.49;96588.38;4214467;28;6864;-79
2023/06/19 13:53:50;;;;;;;;;;;;;;;28.22;40.43;96591.56;4218138;28;5781;-80
2023/06/19 13:55:53;;;;;;;;;;;;;;;28.23;40.52;96590.47;4219742;28;5655;-81
2023/06/19 13:57:58;;;;;;;;;;;;;;;28.24;40.43;96586.63;4215707;28;5647;-79
2023/06/19 14:00:00;;;;;;;;;;;;;;;28.25;40.41;96573.84;4217712;28;5672;-80
2023/06/19 14:02:04;;;;;;;;;;;;;;;28.24;40.43;96573.03;4217994;28;5663;-79
2023/06/19 14:04:08;;;;;;;;;;;;;;;28.24;40.31;96577.66;4218456;28;5742;-79
2023/06/19 14:06:17;;;;;;;;;;;;;;;28.23;40.35;96574.16;4216379;28;5889;-80
2023/06/19 14:08:20;;;;;;;;;;;;;;;28.24;40.27;96570.31;4213975;28;5791;-80
2023/06/19 14:10:23;;;;;;;;;;;;;;;28.23;40.20;96566.00;4218890;28;6148;-81
2023/06/19 14:12:27;;;;;;;;;;;;;;;28.24;40.35;96561.38;4213053;28;5692;-80
2023/06/19 14:14:32;;;;;;;;;;;;;;;28.23;40.06;96554.31;4221282;28;5067;-80
2023/06/19 14:16:35;;;;;;;;;;;;;;;28.22;40.03;96550.00;4210479;28;5746;-64
2023/06/19 14:18:38;;;;;;;;;;;;;;;28.22;39.94;96553.53;4218215;28;5734;-72
2023/06/19 14:20:42;;;;;;;;;;;;;;;28.22;39.96;96552.72;4213699;28;5839;-72
2023/06/19 14:22:45;;;;;;;;;;;;;;;28.23;39.76;96546.97;4214136;28;5987;-72
2023/06/19 14:24:48;;;;;;;;;;;;;;;28.23;39.75;96549.69;4216109;28;6649;-72
2023/06/19 14:26:53;;;;;;;;;;;;;;;28.25;39.66;96552.09;4217487;28;5853;-72
2023/06/19 14:29:05;;;;;;;;;;;;;;;28.26;39.73;96545.53;4217140;28;5596;-74
2023/06/19 14:31:11;;;;;;;;;;;;;;;28.26;39.74;96543.63;4216332;28;5826;-73
2023/06/19 14:33:15;;;;;;;;;;;;;;;28.26;39.52;96538.19;4212368;28;5812;-72
2023/06/19 14:35:19;;;;;;;;;;;;;;;28.26;39.33;96530.03;4216626;28;5687;-73
2023/06/19 14:37:35;;;;;;;;;;;;;;;28.27;39.41;96528.13;4214608;28;5762;-72
2023/06/19 14:39:38;;;;;;;;;;;;;;;28.27;39.39;96520.78;4218297;28;5663;-73
2023/06/19 14:41:42;;;;;;;;;;;;;;;28.29;39.35;96525.91;4215701;28;6417;-73
2023/06/19 14:43:45;;;;;;;;;;;;;;;28.28;39.32;96518.88;4211905;28;5889;-73
2023/06/19 14:45:48;;;;;;;;;;;;;;;28.28;39.28;96514.25;4214453;28;5683;-73
2023/06/19 14:47:52;;;;;;;;;;;;;;;28.30;39.28;96519.34;4213558;28;5132;-73
2023/06/19 14:49:55;;;;;;;;;;;;;;;28.31;39.19;96519.03;4214556;28;5779;-70
2023/06/19 14:51:58;;;;;;;;;;;;;;;28.34;39.22;96525.78;4212882;28;5094;-74
2023/06/19 14:54:02;;;;;;;;;;;;;;;28.33;39.27;96521.47;4206820;28;5758;-73
2023/06/19 14:56:06;;;;;;;;;;;;;;;28.34;39.21;96518.44;4211876;28;5750;-68
2023/06/19 14:58:10;;;;;;;;;;;;;;;28.35;39.23;96508.34;4216506;28;5754;-65
2023/06/19 15:00:14;;;;;;;;;;;;;;;28.36;39.26;96510.75;4215066;28;5754;-67
2023/06/19 15:02:16;;;;;;;;;;;;;;;28.37;39.32;96512.34;4213544;28;5759;-68
2023/06/19 15:04:22;;;;;;;;;;;;;;;28.36;39.18;96508.03;4211824;28;6594;-66
2023/06/19 15:06:26;;;;;;;;;;;;;;;28.36;39.16;96505.31;4208940;28;5798;-70
2023/06/19 15:08:31;;;;;;;;;;;;;;;28.37;39.30;96506.94;4213974;28;5742;-70
2023/06/19 15:10:35;;;;;;;;;;;;;;;28.37;39.46;96501.47;4212398;28;5922;-68
2023/06/19 15:12:37;;;;;;;;;;;;;;;28.37;39.58;96501.47;4215095;28;5763;-71
2023/06/19 15:14:41;;;;;;;;;;;;;;;28.39;39.38;96509.31;4210134;28;5782;-75
2023/06/19 15:16:43;;;;;;;;;;;;;;;28.37;39.37;96506.94;4214636;28;5758;-70
2023/06/19 15:18:46;;;;;;;;;;;;;;;28.40;39.45;96508.22;4211501;28;5896;-66
2023/06/19 15:20:51;;;;;;;;;;;;;;;28.38;39.43;96505.81;4210946;28;5870;-66
2023/06/19 15:22:54;;;;;;;;;;;;;;;28.40;39.42;96508.22;4210733;28;5679;-66
2023/06/19 15:24:57;;;;;;;;;;;;;;;28.42;39.40;96508.69;4210931;28;5754;-68
2023/06/19 15:27:01;;;;;;;;;;;;;;;28.41;39.47;96507.88;4211795;28;5659;-69
2023/06/19 15:29:04;;;;;;;;;;;;;;;28.41;39.57;96510.59;4214024;28;5805;-67
2023/06/19 15:31:08;;;;;;;;;;;;;;;28.41;39.85;96496.22;4211392;28;5133;-68
2023/06/19 15:33:11;;;;;;;;;;;;;;;28.44;39.54;96494.81;4209329;28;5612;-64
2023/06/19 15:35:14;;;;;;;;;;;;;;;28.45;39.55;96490.97;4210390;28;6068;-66
2023/06/19 15:37:18;;;;;;;;;;;;;;;28.45;39.69;96480.09;4208734;28;5730;-67
2023/06/19 15:39:21;;;;;;;;;;;;;;;28.46;39.46;96487.13;4215130;28;5866;-67
2023/06/19 15:41:24;;;;;;;;;;;;;;;28.47;39.41;96499.59;4213368;28;5368;-68
2023/06/19 15:43:30;;;;;;;;;;;;;;;28.48;39.41;96490.34;4213558;28;5667;-66
2023/06/19 15:45:34;;;;;;;;;;;;;;;28.48;39.63;96499.28;4210437;28;5734;-68
2023/06/19 15:47:38;;;;;;;;;;;;;;;28.49;39.47;96491.94;4207285;28;7145;-70
2023/06/19 15:49:43;;;;;;;;;;;;;;;28.49;39.32;96487.28;4214574;28;5922;-70
2023/06/19 15:51:48;;;;;;;;;;;;;;;28.52;39.71;96492.09;4209239;28;5853;-70
2023/06/19 15:53:53;;;;;;;;;;;;;;;28.53;40.11;96487.44;4214189;28;5842;-70
2023/06/19 15:55:56;;;;;;;;;;;;;;;28.53;40.39;96482.00;4212150;28;5793;-72
2023/06/19 15:58:01;;;;;;;;;;;;;;;28.56;40.40;96481.41;4211839;28;5798;-75
2023/06/19 16:00:06;;;;;;;;;;;;;;;28.57;40.51;96474.84;4211613;28;5774;-74
2023/06/19 16:02:09;;;;;;;;;;;;;;;28.58;40.50;96479.16;4212481;28;5833;-74
2023/06/19 16:04:12;;;;;;;;;;;;;;;28.58;40.59;96479.16;4213674;28;5847;-71
2023/06/19 16:06:15;;;;;;;;;;;;;;;28.60;40.66;96471.50;4204322;28;5704;-68
2023/06/19 16:08:18;;;;;;;;;;;;;;;28.60;40.87;96468.75;4214910;28;5674;-66
2023/06/19 16:10:23;;;;;;;;;;;;;;;28.62;40.76;96463.81;4212134;28;5742;-67